createdAt,value
2018-12-16T00:01:14.956Z,13.30
2018-12-16T00:03:42.461Z,12.13
2018-12-16T00:06:09.941Z,13.58
2018-12-16T00:08:37.407Z,11.28
2018-12-16T00:11:04.866Z,12.30
2018-12-16T00:13:32.462Z,13.60
2018-12-16T00:15:59.902Z,14.00
2018-12-16T00:18:27.325Z,13.88
2018-12-16T00:20:54.758Z,13.28
2018-12-16T00:23:22.193Z,13.72
2018-12-16T00:25:49.666Z,15.30
2018-12-16T00:28:17.141Z,11.33
2018-12-16T00:30:44.581Z,13.95
2018-12-16T00:33:12.021Z,13.65
2018-12-16T00:35:39.563Z,14.07
2018-12-16T00:38:07.020Z,14.85
2018-12-16T00:40:34.449Z,13.90
2018-12-16T00:43:01.886Z,13.78
2018-12-16T00:45:29.314Z,12.85
2018-12-16T00:47:56.766Z,14.07
2018-12-16T00:50:24.234Z,15.50
2018-12-16T00:52:51.673Z,14.65
2018-12-16T00:55:19.138Z,14.45
2018-12-16T00:57:46.606Z,15.53
2018-12-16T01:00:14.294Z,14.13
2018-12-16T01:02:42.718Z,12.85
2018-12-16T01:05:10.558Z,13.80
2018-12-16T01:07:38.045Z,13.05
2018-12-16T01:10:07.513Z,14.35
2018-12-16T01:12:34.978Z,14.80
2018-12-16T01:15:02.492Z,16.45
2018-12-16T01:17:29.942Z,12.88
2018-12-16T01:19:57.391Z,16.52
2018-12-16T01:22:24.842Z,16.00
2018-12-16T01:24:52.303Z,13.98
2018-12-16T01:27:19.798Z,15.50
2018-12-16T01:29:47.242Z,14.63
2018-12-16T01:32:14.666Z,14.55
2018-12-16T01:34:42.245Z,14.93
2018-12-16T01:37:09.769Z,14.00
2018-12-16T01:39:37.304Z,10.98
2018-12-16T01:42:04.866Z,14.90
2018-12-16T01:44:32.317Z,13.90
2018-12-16T01:46:59.866Z,15.35
2018-12-16T01:49:27.298Z,12.43
2018-12-16T01:51:54.754Z,13.62
2018-12-16T01:54:22.211Z,14.30
2018-12-16T01:56:49.659Z,13.70
2018-12-16T01:59:17.134Z,13.75
2018-12-16T02:01:46.522Z,15.65
2018-12-16T02:04:13.971Z,15.63
2018-12-16T02:06:41.415Z,15.03
2018-12-16T02:09:10.785Z,14.58
2018-12-16T02:11:38.238Z,11.60
2018-12-16T02:14:05.715Z,14.47
2018-12-16T02:16:33.326Z,13.72
2018-12-16T02:19:00.806Z,14.03
2018-12-16T02:21:28.231Z,14.93
2018-12-16T02:23:55.665Z,15.03
2018-12-16T02:26:23.117Z,16.23
2018-12-16T02:28:50.548Z,15.60
2018-12-16T02:31:17.983Z,13.98
2018-12-16T02:33:45.455Z,14.07
2018-12-16T02:36:12.986Z,15.95
2018-12-16T02:38:40.434Z,12.60
2018-12-16T02:41:07.984Z,16.62
2018-12-16T02:43:35.931Z,15.50
2018-12-16T02:46:03.515Z,13.78
2018-12-16T02:48:31.061Z,18.05
2018-12-16T02:50:58.522Z,15.93
2018-12-16T02:53:26.002Z,17.07
2018-12-16T02:55:53.458Z,15.90
2018-12-16T02:58:20.890Z,17.25
2018-12-16T03:00:48.408Z,16.20
2018-12-16T03:03:15.850Z,15.23
2018-12-16T03:05:43.311Z,15.23
2018-12-16T03:08:10.738Z,16.23
2018-12-16T03:10:38.218Z,18.48
2018-12-16T03:13:06.506Z,16.67
2018-12-16T03:15:34.074Z,17.20
2018-12-16T03:18:01.498Z,15.48
2018-12-16T03:20:28.978Z,16.95
2018-12-16T03:22:56.411Z,13.95
2018-12-16T03:25:23.870Z,17.30
2018-12-16T03:27:51.358Z,16.15
2018-12-16T03:30:18.836Z,14.18
2018-12-16T03:32:46.289Z,15.85
2018-12-16T03:35:13.846Z,18.37
2018-12-16T03:37:41.390Z,17.67
2018-12-16T03:40:08.873Z,15.23
2018-12-16T03:42:36.291Z,16.80
2018-12-16T03:45:04.075Z,15.00
2018-12-16T03:47:31.523Z,16.12
2018-12-16T03:49:59.061Z,17.50
2018-12-16T03:52:26.530Z,15.25
2018-12-16T03:54:53.986Z,15.70
2018-12-16T03:57:21.429Z,15.35
2018-12-16T03:59:48.870Z,15.85
2018-12-16T04:02:16.318Z,16.48
2018-12-16T04:04:43.834Z,15.75
2018-12-16T04:07:11.267Z,17.25
2018-12-16T04:09:38.717Z,18.50
2018-12-16T04:12:06.190Z,17.75
2018-12-16T04:14:33.622Z,17.60
2018-12-16T04:17:01.063Z,19.50
2018-12-16T04:19:28.526Z,19.45
2018-12-16T04:21:56.050Z,19.90
2018-12-16T04:24:23.488Z,19.95
2018-12-16T04:26:50.943Z,15.18
2018-12-16T04:29:18.475Z,21.40
2018-12-16T04:31:46.014Z,17.87
2018-12-16T04:34:13.446Z,20.60
2018-12-16T04:36:40.907Z,16.27
2018-12-16T04:39:08.434Z,17.90
2018-12-16T04:41:35.900Z,18.00
2018-12-16T04:44:03.442Z,19.60
2018-12-16T04:46:30.877Z,19.45
2018-12-16T04:48:58.305Z,19.23
2018-12-16T04:51:25.754Z,18.35
2018-12-16T04:53:53.178Z,18.48
2018-12-16T04:56:20.612Z,20.43
2018-12-16T04:58:48.065Z,18.95
2018-12-16T05:01:15.534Z,18.70
2018-12-16T05:03:42.977Z,18.57
2018-12-16T05:06:10.471Z,22.27
2018-12-16T05:08:37.927Z,19.00
2018-12-16T05:11:05.373Z,20.23
2018-12-16T05:13:32.858Z,20.48
2018-12-16T05:16:00.339Z,20.97
2018-12-16T05:18:27.819Z,23.12
2018-12-16T05:20:55.256Z,19.23
2018-12-16T05:23:22.689Z,19.75
2018-12-16T05:25:50.168Z,20.62
2018-12-16T05:28:17.693Z,19.90
2018-12-16T05:30:45.157Z,16.62
2018-12-16T05:33:12.851Z,20.92
2018-12-16T05:35:40.286Z,20.10
2018-12-16T05:38:07.830Z,17.40
2018-12-16T05:40:35.255Z,23.07
2018-12-16T05:43:02.719Z,20.88
2018-12-16T05:45:30.142Z,22.42
2018-12-16T05:47:57.606Z,19.40
2018-12-16T05:50:25.042Z,19.95
2018-12-16T05:52:52.470Z,21.20
2018-12-16T05:55:20.026Z,19.23
2018-12-16T05:57:47.464Z,20.23
2018-12-16T06:00:14.997Z,23.45
2018-12-16T06:02:42.440Z,22.35
2018-12-16T06:05:09.918Z,20.43
2018-12-16T06:07:37.353Z,20.72
2018-12-16T06:10:05.939Z,19.50
2018-12-16T06:12:33.390Z,16.77
2018-12-16T06:15:00.829Z,22.07
2018-12-16T06:17:28.284Z,22.07
2018-12-16T06:19:55.709Z,22.07
2018-12-16T06:22:23.163Z,22.85
2018-12-16T06:24:50.603Z,21.10
2018-12-16T06:27:18.045Z,21.20
2018-12-16T06:29:45.806Z,21.85
2018-12-16T06:32:13.249Z,21.20
2018-12-16T06:34:40.682Z,20.45
2018-12-16T06:37:08.161Z,19.17
2018-12-16T06:39:35.674Z,21.73
2018-12-16T06:42:03.167Z,22.60
2018-12-16T06:44:30.614Z,21.27
2018-12-16T06:46:58.071Z,21.07
2018-12-16T06:49:26.148Z,20.57
2018-12-16T06:51:53.609Z,18.35
2018-12-16T06:54:21.067Z,20.85
2018-12-16T06:56:48.502Z,21.12
2018-12-16T06:59:15.943Z,22.52
2018-12-16T07:01:43.422Z,19.73
2018-12-16T07:04:10.846Z,19.15
2018-12-16T07:06:38.304Z,22.05
2018-12-16T07:09:05.977Z,21.17
2018-12-16T07:11:33.494Z,20.72
2018-12-16T07:14:00.924Z,19.85
2018-12-16T07:16:28.384Z,21.93
2018-12-16T07:18:56.034Z,21.00
2018-12-16T07:21:23.545Z,17.92
2018-12-16T07:23:50.970Z,19.25
2018-12-16T07:26:18.398Z,21.50
2018-12-16T07:28:45.927Z,21.55
2018-12-16T07:31:13.372Z,21.33
2018-12-16T07:33:40.874Z,20.77
2018-12-16T07:36:08.334Z,19.85
2018-12-16T07:38:35.792Z,19.55
2018-12-16T07:41:03.339Z,21.02
2018-12-16T07:43:30.774Z,21.35
2018-12-16T07:45:58.223Z,20.90
2018-12-16T07:48:25.870Z,21.62
2018-12-16T07:50:53.448Z,19.67
2018-12-16T07:53:20.951Z,21.10
2018-12-16T07:55:48.401Z,21.45
2018-12-16T07:58:15.834Z,20.60
2018-12-16T08:00:43.274Z,20.23
2018-12-16T08:03:10.736Z,19.15
2018-12-16T08:05:38.261Z,23.18
2018-12-16T08:08:05.764Z,20.70
2018-12-16T08:10:33.272Z,21.85
2018-12-16T08:13:00.715Z,21.73
2018-12-16T08:15:28.138Z,23.67
2018-12-16T08:17:55.594Z,22.10
2018-12-16T08:20:23.046Z,21.60
2018-12-16T08:22:50.474Z,25.50
2018-12-16T08:25:17.898Z,24.23
2018-12-16T08:27:45.338Z,23.25
2018-12-16T08:30:12.819Z,23.83
2018-12-16T08:32:40.562Z,25.32
2018-12-16T08:35:08.046Z,25.85
2018-12-16T08:37:35.509Z,23.05
2018-12-16T08:40:03.191Z,25.05
2018-12-16T08:42:30.650Z,24.75
2018-12-16T08:44:58.074Z,23.87
2018-12-16T08:47:25.545Z,21.60
2018-12-16T08:49:53.195Z,23.90
2018-12-16T08:52:20.632Z,24.70
2018-12-16T08:54:48.086Z,26.10
2018-12-16T08:57:15.548Z,26.00
2018-12-16T08:59:42.998Z,25.17
2018-12-16T09:02:10.490Z,24.77
2018-12-16T09:04:37.930Z,24.90
2018-12-16T09:07:05.410Z,25.50
2018-12-16T09:09:33.746Z,25.12
2018-12-16T09:12:01.222Z,25.80
2018-12-16T09:14:28.651Z,26.17
2018-12-16T09:16:56.774Z,24.20
2018-12-16T09:19:24.214Z,25.10
2018-12-16T09:21:51.674Z,23.87
2018-12-16T09:24:19.132Z,24.65
2018-12-16T09:26:47.087Z,23.42
2018-12-16T09:29:14.517Z,23.87
2018-12-16T09:31:41.973Z,25.45
2018-12-16T09:34:09.473Z,24.57
2018-12-16T09:36:37.070Z,25.90
2018-12-16T09:39:06.250Z,24.87
2018-12-16T09:41:33.682Z,24.45
2018-12-16T09:44:01.147Z,25.80
2018-12-16T09:46:30.038Z,25.97
2018-12-16T09:48:57.694Z,26.60
2018-12-16T09:51:25.154Z,24.80
2018-12-16T09:53:52.591Z,22.93
2018-12-16T09:56:20.020Z,25.68
2018-12-16T09:58:47.457Z,24.92
2018-12-16T10:01:14.910Z,24.87
2018-12-16T10:03:42.372Z,21.97
2018-12-16T10:06:09.897Z,22.93
2018-12-16T10:08:37.354Z,23.80
2018-12-16T10:11:04.812Z,24.98
2018-12-16T10:13:32.249Z,23.60
2018-12-16T10:15:59.662Z,23.80
2018-12-16T10:18:27.443Z,23.65
2018-12-16T10:20:54.982Z,21.93
2018-12-16T10:23:22.410Z,24.12
2018-12-16T10:25:49.889Z,23.60
2018-12-16T10:28:17.322Z,23.80
2018-12-16T10:30:44.773Z,23.42
2018-12-16T10:33:12.236Z,22.07
2018-12-16T10:35:39.702Z,22.65
2018-12-16T10:38:07.134Z,24.52
2018-12-16T10:40:34.582Z,24.20
2018-12-16T10:43:02.038Z,25.02
2018-12-16T10:45:29.505Z,25.30
2018-12-16T10:47:56.997Z,25.15
2018-12-16T10:50:24.442Z,24.15
2018-12-16T10:52:51.880Z,23.40
2018-12-16T10:55:19.320Z,24.47
2018-12-16T10:57:46.781Z,25.92
2018-12-16T11:00:19.833Z,23.73
2018-12-16T11:02:47.285Z,23.30
2018-12-16T11:05:15.161Z,24.37
2018-12-16T11:07:42.598Z,24.02
2018-12-16T11:10:10.077Z,22.22
2018-12-16T11:12:38.025Z,24.70
2018-12-16T11:15:05.690Z,23.25
2018-12-16T11:17:33.117Z,23.75
2018-12-16T11:20:00.553Z,25.80
2018-12-16T11:22:27.986Z,24.00
2018-12-16T11:24:55.438Z,23.70
2018-12-16T11:27:22.939Z,23.38
2018-12-16T11:29:50.394Z,24.00
2018-12-16T11:32:17.850Z,23.95
2018-12-16T11:34:45.286Z,25.75
2018-12-16T11:37:12.742Z,25.30
2018-12-16T11:39:40.206Z,25.12
2018-12-16T11:42:07.648Z,28.95
2018-12-16T11:44:35.181Z,24.63
2018-12-16T11:47:02.602Z,26.00
2018-12-16T11:49:30.083Z,28.30
2018-12-16T11:51:57.533Z,28.05
2018-12-16T11:54:24.985Z,28.47
2018-12-16T11:56:52.434Z,26.77
2018-12-16T11:59:19.882Z,25.10
2018-12-16T12:01:47.349Z,26.50
2018-12-16T12:04:14.781Z,27.67
2018-12-16T12:06:42.226Z,26.52
2018-12-16T12:09:09.654Z,28.15
2018-12-16T12:11:37.076Z,26.82
2018-12-16T12:14:04.550Z,27.75
2018-12-16T12:16:32.002Z,27.25
2018-12-16T12:19:00.102Z,28.30
2018-12-16T12:21:27.571Z,24.50
2018-12-16T12:23:55.552Z,27.27
2018-12-16T12:26:23.101Z,27.37
2018-12-16T12:28:50.550Z,30.15
2018-12-16T12:31:18.207Z,28.65
2018-12-16T12:33:45.662Z,28.10
2018-12-16T12:36:13.310Z,27.42
2018-12-16T12:38:40.741Z,26.60
2018-12-16T12:41:08.190Z,28.60
2018-12-16T12:43:35.623Z,26.55
2018-12-16T12:46:03.177Z,26.60
2018-12-16T12:48:30.618Z,28.52
2018-12-16T12:50:58.074Z,29.67
2018-12-16T12:53:25.522Z,28.47
2018-12-16T12:55:52.974Z,29.37
2018-12-16T12:58:20.426Z,28.52
2018-12-16T13:00:47.881Z,29.18
2018-12-16T13:03:15.306Z,28.90
2018-12-16T13:05:42.736Z,26.10
2018-12-16T13:08:10.162Z,27.95
2018-12-16T13:10:37.614Z,29.07
2018-12-16T13:13:05.041Z,30.00
2018-12-16T13:15:32.494Z,30.90
2018-12-16T13:17:59.929Z,30.10
2018-12-16T13:20:27.365Z,29.12
2018-12-16T13:22:54.787Z,30.57
2018-12-16T13:25:35.729Z,29.50
2018-12-16T13:28:03.330Z,29.63
2018-12-16T13:30:30.786Z,31.95
2018-12-16T13:32:58.262Z,31.55
2018-12-16T13:35:25.700Z,32.80
2018-12-16T13:37:53.142Z,28.35
2018-12-16T13:40:20.569Z,32.67
2018-12-16T13:42:47.999Z,32.60
2018-12-16T13:45:15.469Z,34.60
2018-12-16T13:47:42.933Z,30.43
2018-12-16T13:50:10.406Z,32.33
2018-12-16T13:52:37.854Z,30.17
2018-12-16T13:55:05.646Z,31.37
2018-12-16T13:57:34.298Z,30.02
2018-12-16T14:00:01.732Z,29.85
2018-12-16T14:02:29.149Z,30.68
2018-12-16T14:04:56.609Z,29.57
2018-12-16T14:07:24.032Z,28.75
2018-12-16T14:09:51.467Z,27.50
2018-12-16T14:12:18.913Z,28.47
2018-12-16T14:14:46.348Z,29.10
2018-12-16T14:17:13.810Z,27.87
2018-12-16T14:19:41.290Z,28.85
2018-12-16T14:22:08.751Z,27.90
2018-12-16T14:24:36.207Z,27.58
2018-12-16T14:27:03.650Z,28.87
2018-12-16T14:29:31.118Z,29.40
2018-12-16T14:31:58.566Z,36.30
2018-12-16T14:34:26.004Z,27.37
2018-12-16T14:36:53.458Z,26.60
2018-12-16T14:39:20.888Z,27.22
2018-12-16T14:41:48.342Z,28.52
2018-12-16T14:44:15.790Z,29.30
2018-12-16T14:46:43.242Z,29.35
2018-12-16T14:49:10.669Z,29.15
2018-12-16T14:51:38.138Z,28.40
2018-12-16T14:54:05.574Z,28.12
2018-12-16T14:56:33.010Z,29.10
2018-12-16T14:59:00.437Z,27.27
2018-12-16T15:01:27.978Z,28.30
2018-12-16T15:03:55.406Z,29.63
2018-12-16T15:06:22.862Z,27.30
2018-12-16T15:08:50.283Z,27.32
2018-12-16T15:11:17.798Z,29.00
2018-12-16T15:13:45.274Z,27.37
2018-12-16T15:16:12.742Z,26.60
2018-12-16T15:18:40.254Z,27.48
2018-12-16T15:21:07.687Z,30.70
2018-12-16T15:23:35.148Z,28.10
2018-12-16T15:26:02.646Z,29.05
2018-12-16T15:28:30.099Z,27.98
2018-12-16T15:30:57.537Z,29.32
2018-12-16T15:33:24.980Z,37.30
2018-12-16T15:35:52.465Z,27.55
2018-12-16T15:38:19.893Z,30.40
2018-12-16T15:40:47.322Z,27.27
2018-12-16T15:43:14.811Z,26.27
2018-12-16T15:45:42.261Z,32.63
2018-12-16T15:48:09.678Z,28.50
2018-12-16T15:50:37.187Z,28.23
2018-12-16T15:53:04.662Z,28.57
2018-12-16T15:55:32.114Z,29.35
2018-12-16T15:57:59.558Z,26.37
2018-12-16T16:00:27.029Z,28.30
2018-12-16T16:02:54.565Z,28.42
2018-12-16T16:05:21.998Z,26.90
2018-12-16T16:07:49.430Z,28.17
2018-12-16T16:10:16.889Z,28.30
2018-12-16T16:12:44.350Z,27.27
2018-12-16T16:15:11.826Z,30.52
2018-12-16T16:17:39.290Z,27.98
2018-12-16T16:20:06.954Z,26.00
2018-12-16T16:22:34.393Z,25.80
2018-12-16T16:25:01.842Z,27.45
2018-12-16T16:27:29.275Z,25.97
2018-12-16T16:29:56.698Z,31.35
2018-12-16T16:32:24.283Z,26.65
2018-12-16T16:34:51.682Z,27.45
2018-12-16T16:37:19.138Z,26.55
2018-12-16T16:39:46.586Z,25.88
2018-12-16T16:42:14.038Z,27.90
2018-12-16T16:44:41.527Z,26.42
2018-12-16T16:47:09.046Z,26.60
2018-12-16T16:49:36.493Z,26.07
2018-12-16T16:52:03.943Z,27.60
2018-12-16T16:54:31.394Z,28.05
2018-12-16T16:56:58.926Z,25.85
2018-12-16T16:59:26.350Z,34.23
2018-12-16T17:01:53.814Z,30.02
2018-12-16T17:04:21.238Z,27.87
2018-12-16T17:06:48.781Z,30.43
2018-12-16T17:09:16.314Z,27.32
2018-12-16T17:11:43.798Z,32.90
2018-12-16T17:14:11.242Z,26.35
2018-12-16T17:16:38.797Z,25.75
2018-12-16T17:19:06.690Z,27.73
2018-12-16T17:21:34.297Z,27.95
2018-12-16T17:24:01.749Z,26.85
2018-12-16T17:26:30.205Z,31.15
2018-12-16T17:28:57.926Z,26.95
2018-12-16T17:31:25.385Z,25.95
2018-12-16T17:33:52.821Z,26.80
2018-12-16T17:36:20.273Z,25.23
2018-12-16T17:38:47.702Z,27.67
2018-12-16T17:41:15.162Z,27.07
2018-12-16T17:43:42.584Z,28.30
2018-12-16T17:46:10.016Z,27.52
2018-12-16T17:48:37.446Z,24.55
2018-12-16T17:51:04.888Z,28.45
2018-12-16T17:53:32.400Z,24.92
2018-12-16T17:56:00.234Z,25.15
2018-12-16T17:58:27.910Z,26.60
2018-12-16T18:00:55.337Z,27.45
2018-12-16T18:03:22.776Z,26.55
2018-12-16T18:05:50.202Z,26.57
2018-12-16T18:08:17.629Z,25.32
2018-12-16T18:10:45.076Z,26.90
2018-12-16T18:13:12.509Z,25.97
2018-12-16T18:15:39.934Z,24.05
2018-12-16T18:18:07.401Z,26.90
2018-12-16T18:20:34.877Z,24.57
2018-12-16T18:23:02.352Z,23.62
2018-12-16T18:25:29.875Z,22.20
2018-12-16T18:27:57.311Z,27.37
2018-12-16T18:30:24.777Z,25.43
2018-12-16T18:32:52.537Z,23.67
2018-12-16T18:35:20.051Z,27.50
2018-12-16T18:37:47.498Z,26.35
2018-12-16T18:40:15.046Z,25.20
2018-12-16T18:42:42.530Z,24.35
2018-12-16T18:45:09.982Z,24.77
2018-12-16T18:47:37.410Z,22.90
2018-12-16T18:50:07.178Z,24.82
2018-12-16T18:52:34.629Z,25.20
2018-12-16T18:55:02.098Z,20.92
2018-12-16T18:57:29.530Z,17.23
2018-12-16T18:59:57.461Z,18.95
2018-12-16T19:02:24.927Z,20.48
2018-12-16T19:04:52.442Z,21.50
2018-12-16T19:07:19.990Z,22.58
2018-12-16T19:09:47.429Z,19.80
2018-12-16T19:12:14.906Z,21.33
2018-12-16T19:14:42.763Z,20.50
2018-12-16T19:17:10.217Z,22.25
2018-12-16T19:19:37.654Z,21.80
2018-12-16T19:22:05.238Z,22.77
2018-12-16T19:24:32.678Z,22.27
2018-12-16T19:27:00.130Z,22.93
2018-12-16T19:29:27.581Z,24.37
2018-12-16T19:31:55.037Z,22.35
2018-12-16T19:34:22.495Z,23.47
2018-12-16T19:36:49.987Z,24.95
2018-12-16T19:39:17.522Z,26.20
2018-12-16T19:41:45.054Z,23.98
2018-12-16T19:44:12.550Z,23.35
2018-12-16T19:46:39.994Z,24.52
2018-12-16T19:49:07.570Z,24.40
2018-12-16T19:51:34.992Z,24.75
2018-12-16T19:54:02.426Z,24.32
2018-12-16T19:56:29.931Z,24.70
2018-12-16T19:58:57.365Z,22.87
2018-12-16T20:01:24.835Z,24.40
2018-12-16T20:03:58.156Z,24.98
2018-12-16T20:06:31.198Z,24.07
2018-12-16T20:08:58.638Z,23.73
2018-12-16T20:11:26.086Z,23.30
2018-12-16T20:13:53.524Z,24.50
2018-12-16T20:16:20.990Z,27.22
2018-12-16T20:18:48.466Z,25.37
2018-12-16T20:21:16.850Z,23.95
2018-12-16T20:23:44.598Z,25.23
2018-12-16T20:26:12.043Z,22.82
2018-12-16T20:28:39.476Z,23.75
2018-12-16T20:31:06.959Z,24.65
2018-12-16T20:33:34.428Z,24.32
2018-12-16T20:36:01.874Z,25.68
2018-12-16T20:38:29.362Z,24.60
2018-12-16T20:40:56.831Z,24.95
2018-12-16T20:43:24.287Z,25.37
2018-12-16T20:45:51.757Z,23.83
2018-12-16T20:48:19.194Z,24.27
2018-12-16T20:50:46.648Z,25.00
2018-12-16T20:53:14.202Z,23.65
2018-12-16T20:55:41.654Z,22.70
2018-12-16T20:58:09.306Z,24.15
2018-12-16T21:00:36.776Z,23.25
2018-12-16T21:03:04.223Z,23.85
2018-12-16T21:05:31.666Z,24.77
2018-12-16T21:07:59.221Z,23.00
2018-12-16T21:10:26.667Z,24.37
2018-12-16T21:13:00.789Z,23.42
2018-12-16T21:15:34.069Z,24.00
2018-12-16T21:18:07.139Z,24.10
2018-12-16T21:20:34.578Z,22.70
2018-12-16T21:23:02.129Z,25.10
2018-12-16T21:25:29.666Z,23.12
2018-12-16T21:27:57.085Z,23.30
2018-12-16T21:30:24.538Z,25.62
2018-12-16T21:32:51.962Z,24.47
2018-12-16T21:35:19.419Z,24.77
2018-12-16T21:37:46.848Z,25.55
2018-12-16T21:40:14.400Z,26.68
2018-12-16T21:42:41.817Z,26.60
2018-12-16T21:45:09.322Z,23.32
2018-12-16T21:47:36.747Z,24.95
2018-12-16T21:50:05.026Z,23.67
2018-12-16T21:52:32.475Z,26.90
2018-12-16T21:54:59.911Z,24.57
2018-12-16T21:57:33.089Z,25.15
2018-12-16T21:59:56.749Z,26.48
2018-12-16T22:02:24.198Z,28.02
2018-12-16T22:04:51.646Z,24.63
2018-12-16T22:07:19.074Z,23.65
2018-12-16T22:09:46.509Z,26.37
2018-12-16T22:12:13.939Z,27.50
2018-12-16T22:14:41.370Z,27.02
2018-12-16T22:17:08.828Z,25.82
2018-12-16T22:19:36.261Z,24.72
2018-12-16T22:22:03.707Z,24.67
2018-12-16T22:24:31.246Z,24.52
2018-12-16T22:26:58.686Z,24.65
2018-12-16T22:29:26.119Z,24.50
2018-12-16T22:31:53.548Z,25.35
2018-12-16T22:34:21.041Z,24.70
2018-12-16T22:36:48.522Z,25.80
2018-12-16T22:39:16.021Z,25.82
2018-12-16T22:41:43.540Z,26.55
2018-12-16T22:44:11.228Z,25.80
2018-12-16T22:46:38.836Z,27.82
2018-12-16T22:49:06.371Z,26.02
2018-12-16T22:51:33.909Z,24.12
2018-12-16T22:54:01.334Z,24.20
2018-12-16T22:56:29.078Z,23.92
2018-12-16T22:58:56.503Z,22.40
2018-12-16T23:01:23.958Z,24.15
2018-12-16T23:03:51.402Z,25.75
2018-12-16T23:06:18.860Z,22.05
2018-12-16T23:08:46.282Z,23.22
2018-12-16T23:11:13.745Z,22.95
2018-12-16T23:13:41.185Z,22.77
2018-12-16T23:16:08.671Z,22.93
2018-12-16T23:18:36.137Z,21.05
2018-12-16T23:21:03.587Z,23.22
2018-12-16T23:23:31.010Z,22.42
2018-12-16T23:25:58.466Z,21.85
2018-12-16T23:28:25.910Z,22.58
2018-12-16T23:30:53.342Z,21.00
2018-12-16T23:33:20.776Z,22.75
2018-12-16T23:35:48.217Z,21.52
2018-12-16T23:38:16.486Z,21.70
2018-12-16T23:40:43.925Z,20.52
2018-12-16T23:43:11.370Z,22.80
2018-12-16T23:45:38.794Z,20.80
2018-12-16T23:48:06.269Z,22.22
2018-12-16T23:50:33.826Z,21.50
2018-12-16T23:53:01.242Z,19.92
2018-12-16T23:55:28.674Z,21.30
2018-12-16T23:58:01.018Z,19.00
